sensor_id;sensor_type;location;lat;lon;timestamp;P1;durP1;ratioP1;P2;durP2;ratioP2
30080;SDS011;16902;50.816;12.828;2023-03-01T00:02:18;37.83;;;20.40;;
30080;SDS011;16902;50.816;12.828;2023-03-01T00:07:20;33.57;;;18.63;;
30080;SDS011;16902;50.816;12.828;2023-03-01T00:12:22;40.83;;;20.37;;
30080;SDS011;16902;50.816;12.828;2023-03-01T00:17:24;36.33;;;20.67;;
30080;SDS011;16902;50.816;12.828;2023-03-01T00:22:26;38.83;;;20.20;;
30080;SDS011;16902;50.816;12.828;2023-03-01T00:27:29;36.90;;;19.77;;
30080;SDS011;16902;50.816;12.828;2023-03-01T00:32:31;36.87;;;19.43;;
30080;SDS011;16902;50.816;12.828;2023-03-01T00:37:33;35.47;;;19.70;;
30080;SDS011;16902;50.816;12.828;2023-03-01T00:42:35;32.87;;;19.03;;
30080;SDS011;16902;50.816;12.828;2023-03-01T00:47:37;39.20;;;21.07;;
30080;SDS011;16902;50.816;12.828;2023-03-01T00:52:39;36.93;;;19.90;;
30080;SDS011;16902;50.816;12.828;2023-03-01T00:57:41;34.93;;;19.80;;
30080;SDS011;16902;50.816;12.828;2023-03-01T01:02:43;39.03;;;20.73;;
30080;SDS011;16902;50.816;12.828;2023-03-01T01:07:45;39.50;;;21.40;;
30080;SDS011;16902;50.816;12.828;2023-03-01T01:12:46;35.27;;;19.90;;
30080;SDS011;16902;50.816;12.828;2023-03-01T01:17:49;40.37;;;21.13;;
30080;SDS011;16902;50.816;12.828;2023-03-01T01:22:51;40.10;;;21.30;;
30080;SDS011;16902;50.816;12.828;2023-03-01T01:27:52;37.40;;;20.03;;
30080;SDS011;16902;50.816;12.828;2023-03-01T01:32:54;38.33;;;20.83;;
30080;SDS011;16902;50.816;12.828;2023-03-01T01:37:56;34.00;;;20.53;;
30080;SDS011;16902;50.816;12.828;2023-03-01T01:42:58;38.97;;;20.47;;
30080;SDS011;16902;50.816;12.828;2023-03-01T01:48:04;37.00;;;20.10;;
30080;SDS011;16902;50.816;12.828;2023-03-01T01:53:27;34.27;;;17.83;;
30080;SDS011;16902;50.816;12.828;2023-03-01T01:58:30;36.60;;;19.37;;
30080;SDS011;16902;50.816;12.828;2023-03-01T02:03:32;37.17;;;19.87;;
30080;SDS011;16902;50.816;12.828;2023-03-01T02:08:41;37.47;;;19.27;;
30080;SDS011;16902;50.816;12.828;2023-03-01T02:13:44;38.17;;;18.93;;
30080;SDS011;16902;50.816;12.828;2023-03-01T02:18:49;33.80;;;19.63;;
30080;SDS011;16902;50.816;12.828;2023-03-01T02:23:53;37.40;;;19.33;;
30080;SDS011;16902;50.816;12.828;2023-03-01T02:28:57;36.83;;;19.57;;
30080;SDS011;16902;50.816;12.828;2023-03-01T02:33:59;34.30;;;19.73;;
30080;SDS011;16902;50.816;12.828;2023-03-01T02:39:03;34.70;;;19.17;;
30080;SDS011;16902;50.816;12.828;2023-03-01T02:44:07;36.63;;;20.33;;
30080;SDS011;16902;50.816;12.828;2023-03-01T02:49:43;35.13;;;20.33;;
30080;SDS011;16902;50.816;12.828;2023-03-01T02:54:40;33.67;;;18.80;;
30080;SDS011;16902;50.816;12.828;2023-03-01T02:59:49;40.40;;;20.17;;
30080;SDS011;16902;50.816;12.828;2023-03-01T03:04:53;38.57;;;19.67;;
30080;SDS011;16902;50.816;12.828;2023-03-01T03:09:55;34.43;;;19.23;;
30080;SDS011;16902;50.816;12.828;2023-03-01T03:14:57;35.37;;;19.47;;
30080;SDS011;16902;50.816;12.828;2023-03-01T03:19:59;34.20;;;18.27;;
30080;SDS011;16902;50.816;12.828;2023-03-01T03:25:01;34.87;;;20.30;;
30080;SDS011;16902;50.816;12.828;2023-03-01T03:30:04;34.27;;;18.97;;
30080;SDS011;16902;50.816;12.828;2023-03-01T03:35:10;40.27;;;19.47;;
30080;SDS011;16902;50.816;12.828;2023-03-01T03:40:12;34.97;;;19.40;;
30080;SDS011;16902;50.816;12.828;2023-03-01T03:45:17;34.00;;;18.73;;
30080;SDS011;16902;50.816;12.828;2023-03-01T03:50:19;37.67;;;21.03;;
30080;SDS011;16902;50.816;12.828;2023-03-01T03:55:21;41.13;;;21.10;;
30080;SDS011;16902;50.816;12.828;2023-03-01T04:00:23;34.73;;;19.93;;
30080;SDS011;16902;50.816;12.828;2023-03-01T04:05:25;34.13;;;19.87;;
30080;SDS011;16902;50.816;12.828;2023-03-01T04:10:29;36.77;;;20.50;;
30080;SDS011;16902;50.816;12.828;2023-03-01T04:15:32;40.53;;;20.53;;
30080;SDS011;16902;50.816;12.828;2023-03-01T04:20:35;35.83;;;20.57;;
30080;SDS011;16902;50.816;12.828;2023-03-01T04:25:38;39.97;;;20.50;;
30080;SDS011;16902;50.816;12.828;2023-03-01T04:30:41;42.93;;;21.27;;
30080;SDS011;16902;50.816;12.828;2023-03-01T04:35:43;40.40;;;20.83;;
30080;SDS011;16902;50.816;12.828;2023-03-01T04:40:45;38.23;;;21.57;;
30080;SDS011;16902;50.816;12.828;2023-03-01T04:45:47;39.77;;;20.57;;
30080;SDS011;16902;50.816;12.828;2023-03-01T04:50:49;40.80;;;21.47;;
30080;SDS011;16902;50.816;12.828;2023-03-01T04:55:51;42.80;;;20.03;;
30080;SDS011;16902;50.816;12.828;2023-03-01T05:00:53;39.70;;;21.83;;
30080;SDS011;16902;50.816;12.828;2023-03-01T05:05:58;36.87;;;20.57;;
30080;SDS011;16902;50.816;12.828;2023-03-01T05:11:01;38.63;;;21.43;;
30080;SDS011;16902;50.816;12.828;2023-03-01T05:16:03;40.23;;;21.57;;
30080;SDS011;16902;50.816;12.828;2023-03-01T05:21:10;40.70;;;21.87;;
30080;SDS011;16902;50.816;12.828;2023-03-01T05:26:19;42.83;;;23.37;;
30080;SDS011;16902;50.816;12.828;2023-03-01T05:31:29;40.17;;;21.40;;
30080;SDS011;16902;50.816;12.828;2023-03-01T05:36:32;38.43;;;21.73;;
30080;SDS011;16902;50.816;12.828;2023-03-01T05:41:34;45.20;;;21.77;;
30080;SDS011;16902;50.816;12.828;2023-03-01T05:46:36;40.67;;;21.93;;
30080;SDS011;16902;50.816;12.828;2023-03-01T05:51:38;44.00;;;23.80;;
30080;SDS011;16902;50.816;12.828;2023-03-01T05:56:40;46.20;;;24.07;;
30080;SDS011;16902;50.816;12.828;2023-03-01T06:01:42;45.80;;;23.47;;
30080;SDS011;16902;50.816;12.828;2023-03-01T06:06:44;43.83;;;24.30;;
30080;SDS011;16902;50.816;12.828;2023-03-01T06:11:46;48.53;;;26.13;;
30080;SDS011;16902;50.816;12.828;2023-03-01T06:16:48;48.87;;;25.40;;
30080;SDS011;16902;50.816;12.828;2023-03-01T06:21:49;44.57;;;24.77;;
30080;SDS011;16902;50.816;12.828;2023-03-01T06:26:53;49.27;;;24.80;;
30080;SDS011;16902;50.816;12.828;2023-03-01T06:31:55;51.33;;;26.27;;
30080;SDS011;16902;50.816;12.828;2023-03-01T06:36:57;46.87;;;25.60;;
30080;SDS011;16902;50.816;12.828;2023-03-01T06:41:59;45.87;;;24.47;;
30080;SDS011;16902;50.816;12.828;2023-03-01T06:47:01;43.53;;;25.30;;
30080;SDS011;16902;50.816;12.828;2023-03-01T06:52:03;48.17;;;25.70;;
30080;SDS011;16902;50.816;12.828;2023-03-01T06:57:05;50.30;;;27.40;;
30080;SDS011;16902;50.816;12.828;2023-03-01T07:02:09;51.43;;;28.20;;
30080;SDS011;16902;50.816;12.828;2023-03-01T07:07:13;53.57;;;28.90;;
30080;SDS011;16902;50.816;12.828;2023-03-01T07:12:15;53.80;;;28.30;;
30080;SDS011;16902;50.816;12.828;2023-03-01T07:17:17;54.53;;;28.30;;
30080;SDS011;16902;50.816;12.828;2023-03-01T07:22:20;61.37;;;30.33;;
30080;SDS011;16902;50.816;12.828;2023-03-01T07:27:22;54.03;;;29.70;;
30080;SDS011;16902;50.816;12.828;2023-03-01T07:32:23;54.83;;;28.83;;
30080;SDS011;16902;50.816;12.828;2023-03-01T07:37:25;56.37;;;30.07;;
30080;SDS011;16902;50.816;12.828;2023-03-01T07:42:27;58.73;;;29.90;;
30080;SDS011;16902;50.816;12.828;2023-03-01T07:47:29;53.00;;;28.80;;
30080;SDS011;16902;50.816;12.828;2023-03-01T07:52:31;55.43;;;29.67;;
30080;SDS011;16902;50.816;12.828;2023-03-01T07:57:33;51.93;;;28.73;;
30080;SDS011;16902;50.816;12.828;2023-03-01T08:02:35;47.80;;;27.60;;
30080;SDS011;16902;50.816;12.828;2023-03-01T08:07:37;45.17;;;27.27;;
30080;SDS011;16902;50.816;12.828;2023-03-01T08:12:39;52.63;;;28.17;;
30080;SDS011;16902;50.816;12.828;2023-03-01T08:17:41;48.97;;;26.20;;
30080;SDS011;16902;50.816;12.828;2023-03-01T08:22:43;45.07;;;24.83;;
30080;SDS011;16902;50.816;12.828;2023-03-01T08:27:45;43.20;;;24.33;;
30080;SDS011;16902;50.816;12.828;2023-03-01T08:32:47;44.17;;;25.60;;
30080;SDS011;16902;50.816;12.828;2023-03-01T08:37:49;44.97;;;25.10;;
30080;SDS011;16902;50.816;12.828;2023-03-01T08:42:50;44.63;;;23.90;;
30080;SDS011;16902;50.816;12.828;2023-03-01T08:47:52;40.20;;;24.20;;
30080;SDS011;16902;50.816;12.828;2023-03-01T08:52:54;38.23;;;23.70;;
30080;SDS011;16902;50.816;12.828;2023-03-01T08:57:56;37.43;;;23.53;;
30080;SDS011;16902;50.816;12.828;2023-03-01T09:03:00;41.73;;;24.33;;
30080;SDS011;16902;50.816;12.828;2023-03-01T09:08:02;35.87;;;23.30;;
30080;SDS011;16902;50.816;12.828;2023-03-01T09:13:05;36.87;;;23.73;;
30080;SDS011;16902;50.816;12.828;2023-03-01T09:18:06;38.50;;;23.00;;
30080;SDS011;16902;50.816;12.828;2023-03-01T09:23:08;38.03;;;24.77;;
30080;SDS011;16902;50.816;12.828;2023-03-01T09:28:10;39.00;;;24.00;;
30080;SDS011;16902;50.816;12.828;2023-03-01T09:33:30;38.37;;;23.70;;
30080;SDS011;16902;50.816;12.828;2023-03-01T09:38:33;39.00;;;25.77;;
30080;SDS011;16902;50.816;12.828;2023-03-01T09:49:29;34.43;;;23.70;;
30080;SDS011;16902;50.816;12.828;2023-03-01T09:54:34;36.43;;;24.97;;
30080;SDS011;16902;50.816;12.828;2023-03-01T09:59:44;37.53;;;24.37;;
30080;SDS011;16902;50.816;12.828;2023-03-01T10:10:47;30.23;;;23.80;;
30080;SDS011;16902;50.816;12.828;2023-03-01T10:15:52;36.33;;;24.77;;
30080;SDS011;16902;50.816;12.828;2023-03-01T10:21:00;33.10;;;24.02;;
30080;SDS011;16902;50.816;12.828;2023-03-01T10:36:51;35.15;;;25.65;;
30080;SDS011;16902;50.816;12.828;2023-03-01T10:42:01;31.27;;;24.77;;
30080;SDS011;16902;50.816;12.828;2023-03-01T10:52:26;32.67;;;25.05;;
30080;SDS011;16902;50.816;12.828;2023-03-01T10:57:38;34.47;;;26.88;;
30080;SDS011;16902;50.816;12.828;2023-03-01T11:02:43;36.42;;;27.38;;
30080;SDS011;16902;50.816;12.828;2023-03-01T11:12:52;30.10;;;26.42;;
30080;SDS011;16902;50.816;12.828;2023-03-01T11:17:57;31.35;;;27.85;;
30080;SDS011;16902;50.816;12.828;2023-03-01T11:23:14;34.88;;;30.95;;
30080;SDS011;16902;50.816;12.828;2023-03-01T11:28:17;33.88;;;30.55;;
30080;SDS011;16902;50.816;12.828;2023-03-01T11:38:35;36.92;;;33.13;;
30080;SDS011;16902;50.816;12.828;2023-03-01T11:59:25;36.95;;;33.08;;
30080;SDS011;16902;50.816;12.828;2023-03-01T12:41:48;37.35;;;33.47;;
30080;SDS011;16902;50.816;12.828;2023-03-01T12:52:02;36.92;;;32.92;;
30080;SDS011;16902;50.816;12.828;2023-03-01T12:57:20;39.03;;;34.85;;
30080;SDS011;16902;50.816;12.828;2023-03-01T13:02:33;40.72;;;36.50;;
30080;SDS011;16902;50.816;12.828;2023-03-01T13:13:18;40.33;;;36.13;;
30080;SDS011;16902;50.816;12.828;2023-03-01T13:23:28;36.88;;;33.15;;
30080;SDS011;16902;50.816;12.828;2023-03-01T13:33:55;37.00;;;33.20;;
30080;SDS011;16902;50.816;12.828;2023-03-01T13:38:59;42.88;;;36.20;;
30080;SDS011;16902;50.816;12.828;2023-03-01T13:44:02;39.13;;;35.22;;
30080;SDS011;16902;50.816;12.828;2023-03-01T13:49:14;41.30;;;37.08;;
30080;SDS011;16902;50.816;12.828;2023-03-01T13:54:26;39.97;;;35.67;;
30080;SDS011;16902;50.816;12.828;2023-03-01T13:59:32;39.63;;;35.80;;
30080;SDS011;16902;50.816;12.828;2023-03-01T14:04:34;41.75;;;34.10;;
30080;SDS011;16902;50.816;12.828;2023-03-01T14:09:59;40.22;;;36.20;;
30080;SDS011;16902;50.816;12.828;2023-03-01T14:15:02;41.35;;;36.85;;
30080;SDS011;16902;50.816;12.828;2023-03-01T14:20:17;38.97;;;34.88;;
30080;SDS011;16902;50.816;12.828;2023-03-01T14:30:36;40.92;;;36.22;;
30080;SDS011;16902;50.816;12.828;2023-03-01T14:35:40;40.63;;;33.63;;
30080;SDS011;16902;50.816;12.828;2023-03-01T14:40:43;34.75;;;30.67;;
30080;SDS011;16902;50.816;12.828;2023-03-01T14:45:48;41.22;;;33.58;;
30080;SDS011;16902;50.816;12.828;2023-03-01T14:50:51;38.40;;;31.85;;
30080;SDS011;16902;50.816;12.828;2023-03-01T14:55:55;36.25;;;32.30;;
30080;SDS011;16902;50.816;12.828;2023-03-01T15:01:02;35.67;;;31.75;;
30080;SDS011;16902;50.816;12.828;2023-03-01T15:06:06;38.08;;;30.00;;
30080;SDS011;16902;50.816;12.828;2023-03-01T15:26:31;36.42;;;30.25;;
30080;SDS011;16902;50.816;12.828;2023-03-01T15:31:36;36.45;;;28.35;;
30080;SDS011;16902;50.816;12.828;2023-03-01T15:36:44;39.72;;;28.83;;
30080;SDS011;16902;50.816;12.828;2023-03-01T15:41:51;37.63;;;28.90;;
30080;SDS011;16902;50.816;12.828;2023-03-01T15:46:52;33.67;;;26.38;;
30080;SDS011;16902;50.816;12.828;2023-03-01T15:51:54;33.05;;;27.58;;
30080;SDS011;16902;50.816;12.828;2023-03-01T15:56:57;33.75;;;27.33;;
30080;SDS011;16902;50.816;12.828;2023-03-01T16:01:58;30.17;;;26.42;;
30080;SDS011;16902;50.816;12.828;2023-03-01T16:07:00;35.17;;;25.88;;
30080;SDS011;16902;50.816;12.828;2023-03-01T16:12:02;75.40;;;46.67;;
30080;SDS011;16902;50.816;12.828;2023-03-01T16:17:04;49.22;;;33.20;;
30080;SDS011;16902;50.816;12.828;2023-03-01T16:22:07;34.03;;;26.30;;
30080;SDS011;16902;50.816;12.828;2023-03-01T16:27:11;39.70;;;30.55;;
30080;SDS011;16902;50.816;12.828;2023-03-01T16:32:13;32.67;;;26.48;;
30080;SDS011;16902;50.816;12.828;2023-03-01T16:37:15;31.70;;;25.63;;
30080;SDS011;16902;50.816;12.828;2023-03-01T16:42:17;36.22;;;26.65;;
30080;SDS011;16902;50.816;12.828;2023-03-01T16:47:19;35.30;;;27.23;;
30080;SDS011;16902;50.816;12.828;2023-03-01T16:52:21;35.08;;;26.40;;
30080;SDS011;16902;50.816;12.828;2023-03-01T16:57:23;30.60;;;22.98;;
30080;SDS011;16902;50.816;12.828;2023-03-01T17:02:25;33.77;;;25.63;;
30080;SDS011;16902;50.816;12.828;2023-03-01T17:07:28;34.80;;;24.90;;
30080;SDS011;16902;50.816;12.828;2023-03-01T17:12:34;38.03;;;25.63;;
30080;SDS011;16902;50.816;12.828;2023-03-01T17:17:36;38.70;;;25.00;;
30080;SDS011;16902;50.816;12.828;2023-03-01T17:22:38;44.77;;;38.60;;
30080;SDS011;16902;50.816;12.828;2023-03-01T17:27:40;36.07;;;25.30;;
30080;SDS011;16902;50.816;12.828;2023-03-01T17:32:42;34.23;;;22.47;;
30080;SDS011;16902;50.816;12.828;2023-03-01T17:37:44;32.37;;;21.77;;
30080;SDS011;16902;50.816;12.828;2023-03-01T17:42:46;34.57;;;22.43;;
30080;SDS011;16902;50.816;12.828;2023-03-01T17:47:48;39.30;;;23.93;;
30080;SDS011;16902;50.816;12.828;2023-03-01T17:52:50;36.13;;;23.13;;
30080;SDS011;16902;50.816;12.828;2023-03-01T17:57:52;33.13;;;22.37;;
30080;SDS011;16902;50.816;12.828;2023-03-01T18:02:54;39.53;;;26.03;;
30080;SDS011;16902;50.816;12.828;2023-03-01T18:07:56;40.83;;;25.40;;
30080;SDS011;16902;50.816;12.828;2023-03-01T18:12:58;49.70;;;27.73;;
30080;SDS011;16902;50.816;12.828;2023-03-01T18:18:00;48.27;;;28.10;;
30080;SDS011;16902;50.816;12.828;2023-03-01T18:23:02;51.87;;;31.80;;
30080;SDS011;16902;50.816;12.828;2023-03-01T18:28:04;53.90;;;30.73;;
30080;SDS011;16902;50.816;12.828;2023-03-01T18:33:06;53.83;;;30.93;;
30080;SDS011;16902;50.816;12.828;2023-03-01T18:38:07;50.87;;;27.73;;
30080;SDS011;16902;50.816;12.828;2023-03-01T18:43:09;44.10;;;27.63;;
30080;SDS011;16902;50.816;12.828;2023-03-01T18:48:11;48.87;;;29.60;;
30080;SDS011;16902;50.816;12.828;2023-03-01T18:53:14;49.57;;;30.53;;
30080;SDS011;16902;50.816;12.828;2023-03-01T18:58:16;52.43;;;30.97;;
30080;SDS011;16902;50.816;12.828;2023-03-01T19:03:18;53.27;;;32.80;;
30080;SDS011;16902;50.816;12.828;2023-03-01T19:08:20;52.30;;;30.53;;
30080;SDS011;16902;50.816;12.828;2023-03-01T19:13:21;66.60;;;38.40;;
30080;SDS011;16902;50.816;12.828;2023-03-01T19:18:23;71.67;;;40.83;;
30080;SDS011;16902;50.816;12.828;2023-03-01T19:23:26;86.13;;;43.97;;
30080;SDS011;16902;50.816;12.828;2023-03-01T19:28:28;67.83;;;38.87;;
30080;SDS011;16902;50.816;12.828;2023-03-01T19:33:31;69.13;;;39.20;;
30080;SDS011;16902;50.816;12.828;2023-03-01T19:38:34;63.77;;;34.57;;
30080;SDS011;16902;50.816;12.828;2023-03-01T19:43:36;60.30;;;35.40;;
30080;SDS011;16902;50.816;12.828;2023-03-01T19:48:38;62.77;;;35.17;;
30080;SDS011;16902;50.816;12.828;2023-03-01T19:53:40;56.67;;;33.53;;
30080;SDS011;16902;50.816;12.828;2023-03-01T19:58:42;51.43;;;30.50;;
30080;SDS011;16902;50.816;12.828;2023-03-01T20:03:45;47.40;;;29.13;;
30080;SDS011;16902;50.816;12.828;2023-03-01T20:08:47;53.07;;;31.00;;
30080;SDS011;16902;50.816;12.828;2023-03-01T20:13:49;53.27;;;30.07;;
30080;SDS011;16902;50.816;12.828;2023-03-01T20:18:52;44.60;;;25.93;;
30080;SDS011;16902;50.816;12.828;2023-03-01T20:23:54;45.60;;;25.23;;
30080;SDS011;16902;50.816;12.828;2023-03-01T20:28:56;43.67;;;25.40;;
30080;SDS011;16902;50.816;12.828;2023-03-01T20:33:58;38.43;;;23.63;;
30080;SDS011;16902;50.816;12.828;2023-03-01T20:39:00;43.33;;;26.20;;
30080;SDS011;16902;50.816;12.828;2023-03-01T20:44:02;71.57;;;34.20;;
30080;SDS011;16902;50.816;12.828;2023-03-01T20:49:06;61.87;;;36.40;;
30080;SDS011;16902;50.816;12.828;2023-03-01T20:54:08;59.53;;;34.43;;
30080;SDS011;16902;50.816;12.828;2023-03-01T20:59:11;55.33;;;31.30;;
30080;SDS011;16902;50.816;12.828;2023-03-01T21:04:14;55.40;;;31.10;;
30080;SDS011;16902;50.816;12.828;2023-03-01T21:09:18;59.67;;;30.50;;
30080;SDS011;16902;50.816;12.828;2023-03-01T21:14:20;54.07;;;31.97;;
30080;SDS011;16902;50.816;12.828;2023-03-01T21:19:22;59.67;;;31.00;;
30080;SDS011;16902;50.816;12.828;2023-03-01T21:24:26;51.13;;;28.67;;
30080;SDS011;16902;50.816;12.828;2023-03-01T21:29:28;51.67;;;28.83;;
30080;SDS011;16902;50.816;12.828;2023-03-01T21:34:30;54.30;;;29.10;;
30080;SDS011;16902;50.816;12.828;2023-03-01T21:39:32;52.23;;;28.87;;
30080;SDS011;16902;50.816;12.828;2023-03-01T21:44:34;55.00;;;28.93;;
30080;SDS011;16902;50.816;12.828;2023-03-01T21:49:36;53.43;;;29.83;;
30080;SDS011;16902;50.816;12.828;2023-03-01T21:54:38;52.47;;;28.43;;
30080;SDS011;16902;50.816;12.828;2023-03-01T21:59:40;54.07;;;28.97;;
30080;SDS011;16902;50.816;12.828;2023-03-01T22:04:42;53.37;;;29.23;;
30080;SDS011;16902;50.816;12.828;2023-03-01T22:09:44;51.90;;;28.77;;
30080;SDS011;16902;50.816;12.828;2023-03-01T22:14:45;52.97;;;28.73;;
30080;SDS011;16902;50.816;12.828;2023-03-01T22:19:47;53.53;;;28.30;;
30080;SDS011;16902;50.816;12.828;2023-03-01T22:24:49;52.87;;;28.63;;
30080;SDS011;16902;50.816;12.828;2023-03-01T22:29:51;50.87;;;28.70;;
30080;SDS011;16902;50.816;12.828;2023-03-01T22:34:53;49.83;;;28.93;;
30080;SDS011;16902;50.816;12.828;2023-03-01T22:39:54;51.83;;;28.73;;
30080;SDS011;16902;50.816;12.828;2023-03-01T22:44:57;50.03;;;28.90;;
30080;SDS011;16902;50.816;12.828;2023-03-01T22:49:59;51.67;;;29.80;;
30080;SDS011;16902;50.816;12.828;2023-03-01T22:55:01;53.83;;;28.90;;
30080;SDS011;16902;50.816;12.828;2023-03-01T23:00:05;52.43;;;29.87;;
30080;SDS011;16902;50.816;12.828;2023-03-01T23:05:13;52.17;;;28.77;;
30080;SDS011;16902;50.816;12.828;2023-03-01T23:10:15;52.37;;;28.63;;
30080;SDS011;16902;50.816;12.828;2023-03-01T23:15:17;51.37;;;28.73;;
30080;SDS011;16902;50.816;12.828;2023-03-01T23:20:19;54.93;;;28.30;;
30080;SDS011;16902;50.816;12.828;2023-03-01T23:25:21;47.73;;;27.57;;
30080;SDS011;16902;50.816;12.828;2023-03-01T23:30:23;52.07;;;28.80;;
30080;SDS011;16902;50.816;12.828;2023-03-01T23:35:25;47.37;;;27.93;;
30080;SDS011;16902;50.816;12.828;2023-03-01T23:40:27;58.73;;;28.80;;
30080;SDS011;16902;50.816;12.828;2023-03-01T23:45:29;52.03;;;28.77;;
30080;SDS011;16902;50.816;12.828;2023-03-01T23:50:33;45.23;;;28.80;;
30080;SDS011;16902;50.816;12.828;2023-03-01T23:55:46;50.80;;;27.70;;
